createdAt,value
2022-12-19T00:00:36.953Z,-2.59
2022-12-19T00:03:05.258Z,-2.64
2022-12-19T00:05:36.979Z,-2.59
2022-12-19T00:08:09.993Z,-2.56
2022-12-19T00:10:56.203Z,-2.55
2022-12-19T00:13:24.334Z,-2.60
2022-12-19T00:15:52.367Z,-2.44
2022-12-19T00:18:20.594Z,-2.37
2022-12-19T00:20:56.016Z,-2.43
2022-12-19T00:23:24.019Z,-2.46
2022-12-19T00:25:53.370Z,-2.54
2022-12-19T00:28:22.296Z,-2.45
2022-12-19T00:30:50.271Z,-2.74
2022-12-19T00:33:21.307Z,-2.35
2022-12-19T00:35:49.371Z,-2.40
2022-12-19T00:38:17.351Z,-2.35
2022-12-19T00:40:45.337Z,-2.36
2022-12-19T00:43:14.728Z,-2.42
2022-12-19T00:45:42.669Z,-2.25
2022-12-19T00:48:10.668Z,-2.26
2022-12-19T00:50:40.820Z,-2.28
2022-12-19T00:53:08.813Z,-2.17
2022-12-19T00:55:39.701Z,-2.22
2022-12-19T00:58:07.691Z,-2.24
2022-12-19T01:00:37.101Z,-2.27
2022-12-19T01:03:05.672Z,-2.13
2022-12-19T01:05:33.787Z,-2.12
2022-12-19T01:08:02.241Z,-2.23
2022-12-19T01:10:30.425Z,-2.32
2022-12-19T01:12:57.433Z,-2.10
2022-12-19T01:15:25.389Z,-2.19
2022-12-19T01:17:54.731Z,-2.08
2022-12-19T01:20:29.654Z,-2.07
2022-12-19T01:23:00.147Z,-2.01
2022-12-19T01:25:28.652Z,-2.11
2022-12-19T01:27:57.059Z,-2.26
2022-12-19T01:30:25.023Z,-1.98
2022-12-19T01:32:55.676Z,-2.34
2022-12-19T01:35:24.220Z,-1.98
2022-12-19T01:37:53.887Z,-1.96
2022-12-19T01:40:36.726Z,-1.98
2022-12-19T01:43:05.156Z,-2.07
2022-12-19T01:45:35.936Z,-1.95
2022-12-19T01:48:20.446Z,-1.90
2022-12-19T01:51:01.208Z,-1.85
2022-12-19T01:53:34.845Z,-1.86
2022-12-19T01:56:08.381Z,-1.80
2022-12-19T01:58:37.726Z,-1.79
2022-12-19T02:01:05.980Z,-1.78
2022-12-19T02:03:38.605Z,-1.76
2022-12-19T02:06:08.101Z,-1.83
2022-12-19T02:08:37.761Z,-1.76
2022-12-19T02:11:05.855Z,-1.81
2022-12-19T02:13:34.258Z,-1.81
2022-12-19T02:16:10.115Z,-1.77
2022-12-19T02:18:49.710Z,-1.71
2022-12-19T02:21:26.573Z,-1.69
2022-12-19T02:24:17.829Z,-1.68
2022-12-19T02:26:58.431Z,-1.64
2022-12-19T02:29:54.610Z,-1.65
2022-12-19T02:32:32.541Z,-1.63
2022-12-19T02:35:11.324Z,-1.59
2022-12-19T02:37:49.220Z,-1.65
2022-12-19T02:40:24.973Z,-1.68
2022-12-19T02:42:58.401Z,-1.56
2022-12-19T02:45:29.056Z,-1.55
2022-12-19T02:48:04.491Z,-1.86
2022-12-19T02:50:40.927Z,-1.51
2022-12-19T02:53:11.872Z,-1.51
2022-12-19T02:55:48.479Z,-1.53
2022-12-19T02:58:46.675Z,-1.42
2022-12-19T03:01:27.754Z,-1.42
2022-12-19T03:04:07.285Z,-1.40
2022-12-19T03:06:44.228Z,-1.37
2022-12-19T03:09:18.624Z,-1.38
2022-12-19T03:11:50.478Z,-1.34
2022-12-19T03:14:21.151Z,-1.42
2022-12-19T03:16:49.263Z,-1.34
2022-12-19T03:19:18.622Z,-1.39
2022-12-19T03:21:50.708Z,-1.25
2022-12-19T03:24:20.095Z,-1.24
2022-12-19T03:26:54.296Z,-1.29
2022-12-19T03:29:24.133Z,-1.27
2022-12-19T03:31:53.818Z,-1.23
2022-12-19T03:34:27.917Z,-1.20
2022-12-19T03:36:59.620Z,-1.15
2022-12-19T03:39:30.306Z,-1.15
2022-12-19T03:42:17.867Z,-1.15
2022-12-19T03:44:46.101Z,-1.17
2022-12-19T03:47:18.698Z,-1.16
2022-12-19T03:49:49.064Z,-1.14
2022-12-19T03:52:26.247Z,-1.33
2022-12-19T03:55:01.609Z,-1.17
2022-12-19T03:57:32.655Z,-1.25
2022-12-19T04:00:06.615Z,-1.17
2022-12-19T04:02:36.542Z,-1.29
2022-12-19T04:05:10.252Z,-1.14
2022-12-19T04:07:40.077Z,-1.11
2022-12-19T04:10:12.264Z,-1.13
2022-12-19T04:12:44.182Z,-1.09
2022-12-19T04:15:14.075Z,-1.08
2022-12-19T04:17:46.117Z,-1.07
2022-12-19T04:20:17.782Z,-1.07
2022-12-19T04:22:51.943Z,-1.35
2022-12-19T04:25:29.237Z,-1.04
2022-12-19T04:28:00.974Z,-1.05
2022-12-19T04:30:29.150Z,-1.13
2022-12-19T04:32:58.217Z,-1.20
2022-12-19T04:35:29.782Z,-1.00
2022-12-19T04:37:57.764Z,-0.99
2022-12-19T04:40:25.755Z,-0.99
2022-12-19T04:42:54.082Z,-1.13
2022-12-19T04:45:23.240Z,-1.05
2022-12-19T04:47:51.336Z,-1.03
2022-12-19T04:50:19.380Z,-1.11
2022-12-19T04:52:52.194Z,-0.98
2022-12-19T04:55:22.362Z,-0.98
2022-12-19T04:57:50.327Z,-0.98
2022-12-19T05:00:18.719Z,-1.03
2022-12-19T05:02:46.865Z,-1.01
2022-12-19T05:05:15.034Z,-1.18
2022-12-19T05:07:42.988Z,-1.08
2022-12-19T05:10:12.434Z,-0.96
2022-12-19T05:12:40.429Z,-0.94
2022-12-19T05:15:09.460Z,-0.95
2022-12-19T05:17:37.800Z,-0.94
2022-12-19T05:20:07.324Z,-0.95
2022-12-19T05:22:35.265Z,-0.96
2022-12-19T05:25:03.234Z,-0.91
2022-12-19T05:27:33.068Z,-0.93
2022-12-19T05:30:01.393Z,-0.89
2022-12-19T05:32:31.729Z,-0.87
2022-12-19T05:34:59.696Z,-0.94
2022-12-19T05:37:27.899Z,-0.91
2022-12-19T05:39:55.900Z,-0.81
2022-12-19T05:42:23.918Z,-0.79
2022-12-19T05:44:53.304Z,-0.80
2022-12-19T05:47:21.236Z,-0.78
2022-12-19T05:49:49.214Z,-0.82
2022-12-19T05:52:17.176Z,-0.78
2022-12-19T05:54:45.207Z,-0.95
2022-12-19T05:57:13.189Z,-0.83
2022-12-19T05:59:41.165Z,-0.86
2022-12-19T06:02:10.620Z,-0.98
2022-12-19T06:04:38.796Z,-1.04
2022-12-19T06:07:06.771Z,-0.92
2022-12-19T06:09:34.777Z,-0.86
2022-12-19T06:12:02.876Z,-0.88
2022-12-19T06:14:30.860Z,-0.90
2022-12-19T06:16:58.831Z,-0.81
2022-12-19T06:19:28.517Z,-0.79
2022-12-19T06:21:56.560Z,-0.80
2022-12-19T06:24:25.884Z,-0.77
2022-12-19T06:26:53.824Z,-0.88
2022-12-19T06:29:22.208Z,-0.85
2022-12-19T06:31:50.430Z,-0.79
2022-12-19T06:34:33.219Z,-0.87
2022-12-19T06:37:08.439Z,-0.86
2022-12-19T06:39:36.763Z,-0.74
2022-12-19T06:42:22.401Z,-0.66
2022-12-19T06:44:50.665Z,-0.67
2022-12-19T06:47:18.685Z,-0.70
2022-12-19T06:49:50.304Z,-0.70
2022-12-19T06:52:19.740Z,-0.71
2022-12-19T06:54:47.722Z,-0.70
2022-12-19T06:57:16.356Z,-0.83
2022-12-19T06:59:44.365Z,-0.70
2022-12-19T07:02:25.879Z,-0.74
2022-12-19T07:04:59.073Z,-0.73
2022-12-19T07:07:29.752Z,-0.76
2022-12-19T07:09:57.759Z,-0.83
2022-12-19T07:12:25.694Z,-0.80
2022-12-19T07:14:53.937Z,-0.75
2022-12-19T07:17:23.546Z,-0.82
2022-12-19T07:19:51.773Z,-0.89
2022-12-19T07:22:19.891Z,-0.85
2022-12-19T07:24:49.528Z,-0.80
2022-12-19T07:27:17.722Z,-0.81
2022-12-19T07:29:45.691Z,-0.83
2022-12-19T07:32:13.703Z,-0.82
2022-12-19T07:34:42.406Z,-0.80
2022-12-19T07:37:10.392Z,-1.08
2022-12-19T07:39:38.383Z,-0.90
2022-12-19T07:42:07.721Z,-1.04
2022-12-19T07:44:35.746Z,-1.26
2022-12-19T07:47:03.654Z,-0.74
2022-12-19T07:49:31.605Z,-0.85
2022-12-19T07:51:59.563Z,-0.74
2022-12-19T07:54:27.601Z,-0.83
2022-12-19T07:56:55.544Z,-0.85
2022-12-19T07:59:30.344Z,-0.78
2022-12-19T08:02:00.424Z,-0.78
2022-12-19T08:04:28.606Z,-0.75
2022-12-19T08:06:56.553Z,-0.71
2022-12-19T08:09:27.734Z,-0.76
2022-12-19T08:11:55.912Z,-0.73
2022-12-19T08:14:25.295Z,-0.68
2022-12-19T08:17:19.785Z,-0.61
2022-12-19T08:19:41.202Z,-0.76
2022-12-19T08:22:09.193Z,-0.76
2022-12-19T08:24:37.307Z,-0.56
2022-12-19T08:27:05.396Z,-0.54
2022-12-19T08:29:34.953Z,-0.54
2022-12-19T08:32:02.945Z,-0.54
2022-12-19T08:34:31.054Z,-0.51
2022-12-19T08:36:58.993Z,-0.61
2022-12-19T08:39:26.957Z,-0.62
2022-12-19T08:41:54.906Z,-0.48
2022-12-19T08:44:23.172Z,-0.57
2022-12-19T08:46:52.649Z,-0.59
2022-12-19T08:49:21.124Z,-0.38
2022-12-19T08:51:49.091Z,-0.34
2022-12-19T08:54:17.123Z,-0.40
2022-12-19T08:56:46.266Z,-0.27
2022-12-19T08:59:19.294Z,-0.26
2022-12-19T09:02:01.901Z,-0.14
2022-12-19T09:05:59.558Z,-0.13
2022-12-19T09:07:18.742Z,-0.12
2022-12-19T09:09:46.874Z,-0.26
2022-12-19T09:12:16.672Z,-0.09
2022-12-19T09:14:45.558Z,-0.10
2022-12-19T09:17:15.604Z,0.05
2022-12-19T09:19:47.057Z,0.04
2022-12-19T09:22:16.062Z,0.18
2022-12-19T09:24:44.926Z,0.23
2022-12-19T09:27:12.947Z,-0.30
2022-12-19T09:29:42.842Z,0.19
2022-12-19T09:32:11.789Z,0.26
2022-12-19T09:34:41.226Z,0.20
2022-12-19T09:37:15.958Z,0.02
2022-12-19T09:39:46.454Z,0.22
2022-12-19T09:42:34.242Z,0.29
2022-12-19T09:45:31.311Z,0.37
2022-12-19T09:48:02.056Z,0.49
2022-12-19T09:50:48.573Z,0.47
2022-12-19T09:53:25.394Z,0.48
2022-12-19T09:55:55.141Z,0.44
2022-12-19T09:58:35.940Z,0.49
2022-12-19T10:01:09.408Z,0.53
2022-12-19T10:03:41.184Z,0.66
2022-12-19T10:07:11.033Z,0.85
2022-12-19T10:10:19.125Z,0.73
2022-12-19T10:12:41.099Z,0.72
2022-12-19T10:15:03.771Z,0.82
2022-12-19T10:17:49.230Z,0.96
2022-12-19T10:20:23.451Z,1.01
2022-12-19T10:23:19.314Z,1.14
2022-12-19T10:25:53.779Z,1.17
2022-12-19T10:28:41.294Z,1.23
2022-12-19T10:31:21.513Z,1.19
2022-12-19T10:33:57.128Z,1.28
2022-12-19T10:36:48.754Z,1.32
2022-12-19T10:39:24.485Z,1.20
2022-12-19T10:41:58.392Z,1.21
2022-12-19T10:44:29.120Z,1.16
2022-12-19T10:46:57.076Z,1.17
2022-12-19T10:49:27.614Z,1.22
2022-12-19T10:52:00.155Z,1.32
2022-12-19T10:54:40.008Z,1.21
2022-12-19T10:57:33.217Z,1.28
2022-12-19T11:00:04.312Z,1.29
2022-12-19T11:02:41.604Z,1.32
2022-12-19T11:05:24.287Z,1.43
2022-12-19T11:08:04.550Z,1.38
2022-12-19T11:10:57.726Z,1.45
2022-12-19T11:18:35.115Z,1.45
2022-12-19T11:22:04.798Z,1.46
2022-12-19T11:26:42.560Z,1.48
2022-12-19T11:29:35.298Z,1.51
2022-12-19T11:29:41.073Z,1.44
2022-12-19T11:30:39.548Z,1.44
2022-12-19T11:33:56.659Z,1.81
2022-12-19T11:36:34.051Z,1.95
2022-12-19T11:39:02.442Z,2.06
2022-12-19T11:41:35.363Z,1.79
2022-12-19T11:44:13.940Z,2.06
2022-12-19T11:46:48.241Z,1.91
2022-12-19T11:49:27.601Z,1.89
2022-12-19T11:52:02.265Z,1.83
2022-12-19T11:54:34.046Z,2.01
2022-12-19T11:57:02.229Z,2.14
2022-12-19T11:59:35.988Z,2.37
2022-12-19T12:02:31.256Z,2.50
2022-12-19T12:05:21.965Z,2.29
2022-12-19T12:09:17.145Z,2.64
2022-12-19T12:16:33.654Z,2.80
2022-12-19T12:25:06.115Z,2.72
2022-12-19T12:31:00.903Z,2.60
2022-12-19T12:31:08.850Z,2.41
2022-12-19T12:31:16.207Z,2.41
2022-12-19T12:32:03.191Z,2.30
2022-12-19T12:35:32.828Z,2.21
2022-12-19T12:38:33.358Z,2.59
2022-12-19T12:41:16.464Z,2.50
2022-12-19T12:43:57.690Z,2.39
2022-12-19T12:46:28.734Z,2.52
2022-12-19T12:49:02.344Z,2.52
2022-12-19T12:51:33.166Z,2.50
2022-12-19T12:54:07.580Z,2.56
2022-12-19T12:56:36.592Z,2.54
2022-12-19T12:59:21.708Z,2.96
2022-12-19T13:01:58.261Z,3.07
2022-12-19T13:04:31.410Z,3.27
2022-12-19T13:07:16.257Z,3.45
2022-12-19T13:09:44.945Z,3.28
2022-12-19T13:12:39.355Z,3.20
2022-12-19T13:15:34.351Z,3.45
2022-12-19T13:18:12.919Z,3.95
2022-12-19T13:20:45.650Z,3.74
2022-12-19T13:23:33.443Z,3.90
2022-12-19T13:26:01.772Z,3.89
2022-12-19T13:28:42.298Z,3.92
2022-12-19T13:31:22.878Z,3.83
2022-12-19T13:34:19.190Z,3.69
2022-12-19T13:39:51.849Z,3.53
2022-12-19T13:40:11.107Z,3.23
2022-12-19T13:43:10.765Z,3.30
2022-12-19T13:45:42.848Z,3.18
2022-12-19T13:48:17.265Z,3.28
2022-12-19T13:50:49.619Z,3.24
2022-12-19T13:53:20.609Z,3.20
2022-12-19T13:55:49.012Z,3.36
2022-12-19T13:58:29.333Z,3.33
2022-12-19T14:00:59.984Z,3.38
2022-12-19T14:03:35.702Z,3.27
2022-12-19T14:06:16.231Z,3.24
2022-12-19T14:09:46.234Z,3.38
2022-12-19T14:13:48.757Z,3.55
2022-12-19T14:14:48.440Z,3.55
2022-12-19T14:17:30.644Z,3.81
2022-12-19T14:20:32.414Z,3.43
2022-12-19T14:22:46.575Z,4.36
2022-12-19T14:26:14.467Z,3.93
2022-12-19T14:28:17.341Z,3.90
2022-12-19T14:30:55.903Z,3.38
2022-12-19T14:33:45.706Z,3.91
2022-12-19T14:36:26.042Z,3.27
2022-12-19T14:39:27.922Z,2.98
2022-12-19T14:42:04.287Z,2.98
2022-12-19T14:52:35.814Z,2.52
2022-12-19T14:54:01.162Z,3.13
2022-12-19T14:54:05.765Z,2.91
2022-12-19T14:54:40.650Z,2.67
2022-12-19T14:59:01.776Z,2.87
2022-12-19T15:01:32.014Z,2.72
2022-12-19T15:04:49.168Z,2.91
2022-12-19T15:07:08.494Z,2.61
2022-12-19T15:10:58.913Z,2.44
2022-12-19T15:14:54.464Z,2.31
2022-12-19T15:15:48.400Z,2.24
2022-12-19T15:18:20.860Z,2.05
2022-12-19T15:20:49.506Z,2.14
2022-12-19T15:23:21.973Z,2.09
2022-12-19T15:26:07.913Z,1.95
2022-12-19T15:28:41.572Z,1.74
2022-12-19T15:31:24.392Z,1.94
2022-12-19T15:34:33.482Z,1.77
2022-12-19T15:36:40.495Z,1.87
2022-12-19T15:39:08.465Z,1.81
2022-12-19T15:41:36.866Z,2.59
2022-12-19T15:44:10.604Z,2.82
2022-12-19T15:46:46.334Z,2.57
2022-12-19T15:49:17.538Z,2.46
2022-12-19T15:51:46.216Z,2.48
2022-12-19T15:54:47.312Z,2.62
2022-12-19T15:57:02.335Z,2.88
2022-12-19T15:59:38.685Z,2.83
2022-12-19T16:02:18.308Z,2.70
2022-12-19T16:04:48.551Z,2.80
2022-12-19T16:07:18.700Z,2.41
2022-12-19T16:09:47.057Z,2.34
2022-12-19T16:12:17.023Z,2.37
2022-12-19T16:14:45.532Z,2.27
2022-12-19T16:17:19.213Z,2.28
2022-12-19T16:19:47.409Z,1.77
2022-12-19T16:22:19.722Z,2.05
2022-12-19T16:24:48.100Z,2.11
2022-12-19T16:27:23.702Z,2.35
2022-12-19T16:29:52.500Z,2.14
2022-12-19T16:32:24.341Z,1.91
2022-12-19T16:34:53.117Z,2.05
2022-12-19T16:37:21.139Z,2.17
2022-12-19T16:39:49.144Z,2.15
2022-12-19T16:42:18.294Z,2.34
2022-12-19T16:44:48.412Z,1.99
2022-12-19T16:47:19.002Z,2.18
2022-12-19T16:49:48.503Z,2.21
2022-12-19T16:52:16.526Z,2.10
2022-12-19T16:54:44.543Z,2.31
2022-12-19T16:57:20.894Z,2.39
2022-12-19T16:59:49.706Z,2.34
2022-12-19T17:02:40.030Z,2.36
2022-12-19T17:05:17.025Z,2.17
2022-12-19T17:07:45.674Z,1.96
2022-12-19T17:10:13.931Z,1.74
2022-12-19T17:12:42.925Z,1.55
2022-12-19T17:15:20.869Z,1.57
2022-12-19T17:17:49.368Z,1.74
2022-12-19T17:20:20.743Z,1.62
2022-12-19T17:22:50.214Z,1.72
2022-12-19T17:25:22.249Z,1.74
2022-12-19T17:27:53.622Z,1.52
2022-12-19T17:30:23.272Z,1.31
2022-12-19T17:32:55.926Z,1.55
2022-12-19T17:35:35.993Z,1.43
2022-12-19T17:38:05.298Z,1.40
2022-12-19T17:40:34.994Z,1.51
2022-12-19T17:43:03.357Z,1.53
2022-12-19T17:45:34.076Z,1.37
2022-12-19T17:48:06.893Z,1.33
2022-12-19T17:50:39.433Z,1.48
2022-12-19T17:53:14.194Z,1.13
2022-12-19T17:55:49.352Z,1.14
2022-12-19T17:58:18.326Z,1.34
2022-12-19T18:00:48.859Z,0.88
2022-12-19T18:03:24.234Z,0.94
2022-12-19T18:05:56.048Z,1.16
2022-12-19T18:08:29.079Z,1.06
2022-12-19T18:11:00.339Z,1.22
2022-12-19T18:13:30.185Z,1.29
2022-12-19T18:15:59.541Z,1.29
2022-12-19T18:18:32.468Z,1.15
2022-12-19T18:21:02.890Z,1.69
2022-12-19T18:23:31.613Z,1.60
2022-12-19T18:26:02.374Z,1.55
2022-12-19T18:28:31.587Z,1.38
2022-12-19T18:31:02.299Z,1.79
2022-12-19T18:33:35.998Z,1.60
2022-12-19T18:36:06.954Z,1.33
2022-12-19T18:38:35.920Z,1.54
2022-12-19T18:41:04.030Z,1.17
2022-12-19T18:43:32.772Z,1.25
2022-12-19T18:46:00.843Z,1.69
2022-12-19T18:48:31.864Z,2.39
2022-12-19T18:51:01.555Z,2.22
2022-12-19T18:53:35.217Z,2.31
2022-12-19T18:56:05.402Z,2.35
2022-12-19T18:58:34.008Z,2.39
2022-12-19T19:01:03.317Z,2.29
2022-12-19T19:03:35.501Z,2.44
2022-12-19T19:06:05.521Z,2.50
2022-12-19T19:08:35.900Z,2.41
2022-12-19T19:11:04.034Z,2.57
2022-12-19T19:13:32.187Z,3.18
2022-12-19T19:16:01.923Z,3.24
2022-12-19T19:18:33.139Z,2.79
2022-12-19T19:21:02.516Z,2.68
2022-12-19T19:23:36.691Z,2.78
2022-12-19T19:26:04.941Z,2.67
2022-12-19T19:28:32.932Z,2.55
2022-12-19T19:31:02.361Z,2.40
2022-12-19T19:33:34.635Z,2.34
2022-12-19T19:36:12.020Z,2.25
2022-12-19T19:38:43.783Z,2.29
2022-12-19T19:41:12.726Z,2.31
2022-12-19T19:43:41.393Z,2.60
2022-12-19T19:46:12.100Z,2.13
2022-12-19T19:48:41.443Z,2.28
2022-12-19T19:51:10.030Z,2.62
2022-12-19T19:53:38.000Z,2.44
2022-12-19T19:56:08.143Z,2.44
2022-12-19T19:58:36.278Z,2.39
2022-12-19T20:01:08.917Z,2.53
2022-12-19T20:03:37.198Z,2.29
2022-12-19T20:06:05.701Z,2.40
2022-12-19T20:08:39.823Z,2.55
2022-12-19T20:11:11.065Z,2.54
2022-12-19T20:13:39.723Z,2.73
2022-12-19T20:16:09.709Z,2.75
2022-12-19T20:18:38.727Z,3.00
2022-12-19T20:21:12.685Z,3.10
2022-12-19T20:23:42.632Z,2.73
2022-12-19T20:26:13.330Z,2.51
2022-12-19T20:28:48.382Z,2.81
2022-12-19T20:31:23.689Z,2.87
2022-12-19T20:33:53.241Z,2.87
2022-12-19T20:36:21.257Z,3.32
2022-12-19T20:38:50.296Z,2.84
2022-12-19T20:41:20.426Z,2.52
2022-12-19T20:43:49.507Z,2.54
2022-12-19T20:46:20.826Z,3.07
2022-12-19T20:48:50.047Z,2.74
2022-12-19T20:51:20.690Z,2.68
2022-12-19T20:53:50.164Z,3.13
2022-12-19T20:56:30.442Z,2.77
2022-12-19T20:59:00.277Z,2.58
2022-12-19T21:01:28.385Z,2.38
2022-12-19T21:03:58.519Z,2.26
2022-12-19T21:06:28.407Z,2.35
2022-12-19T21:09:02.522Z,2.34
2022-12-19T21:11:35.705Z,2.02
2022-12-19T21:14:05.869Z,2.39
2022-12-19T21:16:34.933Z,2.15
2022-12-19T21:19:03.043Z,2.37
2022-12-19T21:21:32.170Z,2.36
2022-12-19T21:24:02.275Z,2.63
2022-12-19T21:26:34.937Z,3.20
2022-12-19T21:29:02.940Z,3.49
2022-12-19T21:31:33.522Z,3.78
2022-12-19T21:34:03.421Z,3.90
2022-12-19T21:36:33.208Z,3.96
2022-12-19T21:39:04.064Z,3.89
2022-12-19T21:41:36.329Z,3.79
2022-12-19T21:44:06.323Z,3.63
2022-12-19T21:46:40.774Z,3.95
2022-12-19T21:49:16.531Z,4.30
2022-12-19T21:51:45.114Z,3.83
2022-12-19T21:54:13.287Z,4.00
2022-12-19T21:56:42.983Z,3.87
2022-12-19T21:59:14.767Z,3.71
2022-12-19T22:01:47.613Z,3.85
2022-12-19T22:04:21.397Z,4.09
2022-12-19T22:06:51.423Z,3.99
2022-12-19T22:09:22.195Z,3.59
2022-12-19T22:11:51.940Z,3.25
2022-12-19T22:14:22.632Z,3.11
2022-12-19T22:16:51.800Z,3.02
2022-12-19T22:19:20.702Z,3.08
2022-12-19T22:21:54.321Z,2.91
2022-12-19T22:24:25.646Z,2.91
2022-12-19T22:26:58.549Z,2.92
2022-12-19T22:29:31.002Z,2.97
2022-12-19T22:32:01.796Z,2.94
2022-12-19T22:34:31.092Z,2.88
2022-12-19T22:37:05.132Z,2.89
2022-12-19T22:39:35.459Z,2.85
2022-12-19T22:42:07.011Z,2.91
2022-12-19T22:44:35.108Z,2.83
2022-12-19T22:47:04.666Z,2.86
2022-12-19T22:49:32.716Z,2.71
2022-12-19T22:52:04.113Z,2.79
2022-12-19T22:54:32.146Z,2.94
2022-12-19T22:57:00.931Z,2.82
2022-12-19T22:59:30.321Z,2.77
2022-12-19T23:01:59.664Z,2.98
2022-12-19T23:04:27.894Z,2.93
2022-12-19T23:06:55.894Z,2.86
2022-12-19T23:09:24.216Z,2.79
2022-12-19T23:11:52.197Z,2.83
2022-12-19T23:14:21.177Z,2.97
2022-12-19T23:16:50.765Z,2.95
2022-12-19T23:19:19.693Z,3.00
2022-12-19T23:21:47.759Z,2.89
2022-12-19T23:24:16.032Z,2.99
2022-12-19T23:26:44.194Z,2.81
2022-12-19T23:29:14.279Z,2.94
2022-12-19T23:31:43.905Z,2.88
2022-12-19T23:34:14.035Z,3.02
2022-12-19T23:39:30.355Z,3.03
2022-12-19T23:41:58.324Z,2.91
2022-12-19T23:44:26.362Z,2.93
2022-12-19T23:47:00.852Z,2.89
2022-12-19T23:49:32.709Z,3.10
2022-12-19T23:52:00.772Z,2.98
2022-12-19T23:54:28.809Z,2.85
2022-12-19T23:56:56.772Z,2.67
2022-12-19T23:59:25.668Z,2.81
